Terminal Aerodrome Forecast
Issued by NWS Des Moines, IA

Home | Current Version | Previous Version | Text Only | Print | Product List | Glossary On
Versions: 1 2 3 4 5 6 7 8 9 10 11 12 13 14 15 16 17 18 19 20 21 22 23 24 25 26 27 28 29 30 31 32 33 34 35
000
FTUS43 KDMX 271741
TAFALO
TAF
KALO 271741Z 2718/2818 08007KT P6SM OVC018
     FM272200 13006KT P6SM BKN030
     FM280900 14009KT P6SM OVC022
     FM281500 13014G20KT 5SM BR OVC010=

USA.gov is the U.S. government's official web portal to all federal, state and local government web resources and services.